• Join FlightAware (Why Join?)
  • Login
  • US Flag 
06:54PM EDT


 

Airport Tracker/Info


-or-


 

Live Flight TrackerFlight Track Log ✈ SKW6345 ✈ 27-May-2014 ✈ KLAX - KFAT

Flight Track Log - Related Links

Times and Time Zones

All times are in EDT time to prevent confusion due to time zone crossing. See the SKW6345 flight status page for this flight to view local times or setup timezone preferences in your user account.

Time Position Orientation Groundspeed Altitude Reporting Facility
EDT Latitude Longitude Course Direction KTS MPH feet Rate Location/Type
08:14PM 33.9500 -118.4667 285° West 159 183 1,900  Level Southern California TRACON
08:15PM 33.9625 -118.5211 285° West 178 205 3,500 1,680 Climbing Los Angeles Center
08:16PM 33.9747 -118.5811 284° West 181 208 5,300 1,680 Climbing Los Angeles Center
08:17PM 33.9869 -118.6433 283° West 180 207 7,000 780 Climbing Los Angeles Center
08:18PM 34.0417 -118.6572 348° North 240 276 7,000 60 Level Los Angeles Center
08:19PM 34.1086 -118.6361 15° North 249 287 7,200 1,020 Climbing Los Angeles Center
08:20PM 34.1708 -118.6342 North 234 269 9,200 1,680 Climbing Los Angeles Center
08:21PM 34.2244 -118.6556 342° North 209 241 10,700 900 Climbing Los Angeles Center
08:22PM 34.2831 -118.6761 344° North 213 245 11,100 660 Climbing Los Angeles Center
08:23PM 34.3647 -118.7039 344° North 245 282 12,100 480 Climbing Los Angeles Center
08:24PM 34.4336 -118.7275 344° North 253 291 12,100  Level Los Angeles Center
08:25PM 34.5022 -118.7494 345° North 254 292 12,100  Level Los Angeles Center
08:26PM 34.5706 -118.7731 344° North 254 292 12,100  Level Los Angeles Center
08:28PM 34.6381 -118.7986 343° North 254 292 12,100 780 Level Los Angeles Center
08:29PM 34.7025 -118.8250 341° North 251 289 13,800 1,620 Climbing Los Angeles Center
08:30PM 34.7761 -118.8375 352° North 225 259 15,500 1,140 Climbing Los Angeles Center
08:31PM 34.8353 -118.8481 352° North 220 253 16,200 240 Climbing Los Angeles Center
08:32PM 34.9061 -118.8542 356° North 248 285 16,000 -120 Descending Los Angeles Center
08:33PM 34.9839 -118.8664 353° North 275 316 16,000 360 Level Los Angeles Center
08:34PM 35.0636 -118.8800 352° North 288 331 16,800 1,200 Climbing Los Angeles Center
08:35PM 35.1453 -118.8944 352° North 251 289 18,500 1,200 Climbing Los Angeles Center
08:36PM 35.2108 -118.9058 352° North 242 278 19,400 720 Climbing Los Angeles Center
08:37PM 35.2792 -118.9172 352° North 242 278 20,000 240 Climbing Los Angeles Center
08:38PM 35.3525 -118.9281 353° North 258 297 20,000  Level Los Angeles Center
08:39PM 35.4294 -118.9408 352° North 273 314 20,000  Level Los Angeles Center
08:40PM 35.5069 -118.9556 351° North 277 319 20,000  Level Los Angeles Center
08:41PM 35.6008 -118.9708 352° North 281 323 20,000  Level Los Angeles Center
08:42PM 35.6789 -118.9839 352° North 282 325 20,000 -120 Level Los Angeles Center
08:43PM 35.7569 -118.9969 352° North 283 326 19,800 -660 Descending Los Angeles Center
08:44PM 35.8406 -119.0117 352° North 298 343 18,700 -1,020 Descending Los Angeles Center
08:45PM 35.9286 -119.0275 352° North 314 361 17,700 -1,200 Descending Los Angeles Center
08:46PM 36.0303 -119.0778 338° Northwest 328 377 16,300 -1,320 Descending Los Angeles Center
08:47PM 36.1150 -119.1186 339° North 328 377 15,000 -1,200 Descending Los Angeles Center
08:48PM 36.2014 -119.1603 339° North 330 380 13,900 -1,020 Descending Los Angeles Center
08:49PM 36.2853 -119.1997 339° North 328 377 13,000 -1,020 Descending Los Angeles Center
08:50PM 36.3667 -119.2392 339° North 321 369 11,900 -1,080 Descending Los Angeles Center
08:51PM 36.4481 -119.2778 339° North 321 369 10,800 -1,260 Descending Los Angeles Center
08:52PM 36.5425 -119.3242 338° Northwest 313 360 9,400 -1,440 Descending Los Angeles Center
08:53PM 36.5917 -119.3994 309° West 302 348 7,900 -1,860 Descending Los Angeles Center
08:54PM 36.6397 -119.4772 308° West 289 333 5,600 -2,160 Descending Los Angeles Center
08:56PM 36.6892 -119.5642 305° West 258 297 3,200 -1,740 Descending Oakland Center
08:57PM 36.7275 -119.6317 305° West 227 261 1,800 -1,080 Descending Oakland Center
08:58PM 36.7514 -119.6717 307° West 156 180 1,100 -720 Descending Oakland Center
08:59PM 36.7703 -119.7061 304° West 126 145 400 -720 Descending Oakland Center